sensor_id;sensor_type;location;lat;lon;timestamp;P1;durP1;ratioP1;P2;durP2;ratioP2
40951;SDS011;26682;51.660;19.338;2023-02-01T00:00:41;7.60;;;3.20;;
40951;SDS011;26682;51.660;19.338;2023-02-01T00:02:43;7.53;;;2.75;;
40951;SDS011;26682;51.660;19.338;2023-02-01T00:04:31;5.45;;;3.22;;
40951;SDS011;26682;51.660;19.338;2023-02-01T00:06:18;9.07;;;3.00;;
40951;SDS011;26682;51.660;19.338;2023-02-01T00:08:05;11.27;;;3.03;;
40951;SDS011;26682;51.660;19.338;2023-02-01T00:09:53;8.60;;;2.20;;
40951;SDS011;26682;51.660;19.338;2023-02-01T00:11:40;6.60;;;2.00;;
40951;SDS011;26682;51.660;19.338;2023-02-01T00:13:28;8.95;;;2.28;;
40951;SDS011;26682;51.660;19.338;2023-02-01T00:15:16;9.07;;;2.42;;
40951;SDS011;26682;51.660;19.338;2023-02-01T00:17:05;10.43;;;2.63;;
40951;SDS011;26682;51.660;19.338;2023-02-01T00:19:00;8.43;;;3.80;;
40951;SDS011;26682;51.660;19.338;2023-02-01T00:20:50;9.73;;;3.10;;
40951;SDS011;26682;51.660;19.338;2023-02-01T00:22:37;9.90;;;3.60;;
40951;SDS011;26682;51.660;19.338;2023-02-01T00:24:24;8.73;;;2.70;;
40951;SDS011;26682;51.660;19.338;2023-02-01T00:26:14;8.13;;;2.63;;
40951;SDS011;26682;51.660;19.338;2023-02-01T00:28:03;8.25;;;2.80;;
40951;SDS011;26682;51.660;19.338;2023-02-01T00:29:51;7.45;;;1.80;;
40951;SDS011;26682;51.660;19.338;2023-02-01T00:31:41;8.95;;;2.08;;
40951;SDS011;26682;51.660;19.338;2023-02-01T00:33:30;7.68;;;2.50;;
40951;SDS011;26682;51.660;19.338;2023-02-01T00:35:18;9.10;;;3.42;;
40951;SDS011;26682;51.660;19.338;2023-02-01T00:37:05;12.80;;;4.18;;
40951;SDS011;26682;51.660;19.338;2023-02-01T00:38:53;18.83;;;6.35;;
40951;SDS011;26682;51.660;19.338;2023-02-01T00:40:40;15.50;;;5.43;;
40951;SDS011;26682;51.660;19.338;2023-02-01T00:42:28;22.73;;;9.93;;
40951;SDS011;26682;51.660;19.338;2023-02-01T00:46:03;9.70;;;3.72;;
40951;SDS011;26682;51.660;19.338;2023-02-01T00:47:51;16.80;;;5.22;;
40951;SDS011;26682;51.660;19.338;2023-02-01T00:49:38;19.67;;;7.78;;
40951;SDS011;26682;51.660;19.338;2023-02-01T00:51:26;11.98;;;5.25;;
40951;SDS011;26682;51.660;19.338;2023-02-01T00:53:14;9.60;;;4.40;;
40951;SDS011;26682;51.660;19.338;2023-02-01T00:55:02;10.63;;;4.10;;
40951;SDS011;26682;51.660;19.338;2023-02-01T00:56:50;8.73;;;3.20;;
40951;SDS011;26682;51.660;19.338;2023-02-01T00:58:38;6.88;;;3.17;;
40951;SDS011;26682;51.660;19.338;2023-02-01T01:00:26;16.42;;;4.78;;
40951;SDS011;26682;51.660;19.338;2023-02-01T01:02:13;10.63;;;4.00;;
40951;SDS011;26682;51.660;19.338;2023-02-01T01:04:01;13.35;;;4.43;;
40951;SDS011;26682;51.660;19.338;2023-02-01T01:05:48;12.52;;;4.15;;
40951;SDS011;26682;51.660;19.338;2023-02-01T01:07:35;12.10;;;5.38;;
40951;SDS011;26682;51.660;19.338;2023-02-01T01:09:23;12.15;;;4.80;;
40951;SDS011;26682;51.660;19.338;2023-02-01T01:11:18;10.95;;;4.57;;
40951;SDS011;26682;51.660;19.338;2023-02-01T01:13:08;12.55;;;5.13;;
40951;SDS011;26682;51.660;19.338;2023-02-01T01:14:57;16.65;;;5.00;;
40951;SDS011;26682;51.660;19.338;2023-02-01T01:16:44;11.80;;;4.40;;
40951;SDS011;26682;51.660;19.338;2023-02-01T01:18:32;12.38;;;5.93;;
40951;SDS011;26682;51.660;19.338;2023-02-01T01:20:20;15.52;;;5.55;;
40951;SDS011;26682;51.660;19.338;2023-02-01T01:22:08;9.02;;;4.50;;
40951;SDS011;26682;51.660;19.338;2023-02-01T01:23:56;9.52;;;4.90;;
40951;SDS011;26682;51.660;19.338;2023-02-01T01:25:44;11.77;;;4.30;;
40951;SDS011;26682;51.660;19.338;2023-02-01T01:27:31;12.27;;;4.78;;
40951;SDS011;26682;51.660;19.338;2023-02-01T01:29:18;13.55;;;5.00;;
40951;SDS011;26682;51.660;19.338;2023-02-01T01:31:09;14.27;;;5.00;;
40951;SDS011;26682;51.660;19.338;2023-02-01T01:32:57;12.65;;;4.47;;
40951;SDS011;26682;51.660;19.338;2023-02-01T01:34:45;15.50;;;4.10;;
40951;SDS011;26682;51.660;19.338;2023-02-01T01:36:32;13.88;;;4.47;;
40951;SDS011;26682;51.660;19.338;2023-02-01T01:38:19;10.45;;;5.18;;
40951;SDS011;26682;51.660;19.338;2023-02-01T01:40:07;9.68;;;4.38;;
40951;SDS011;26682;51.660;19.338;2023-02-01T01:41:57;10.90;;;3.97;;
40951;SDS011;26682;51.660;19.338;2023-02-01T01:45:42;10.25;;;4.13;;
40951;SDS011;26682;51.660;19.338;2023-02-01T01:47:31;10.00;;;3.92;;
40951;SDS011;26682;51.660;19.338;2023-02-01T01:49:31;9.98;;;3.60;;
40951;SDS011;26682;51.660;19.338;2023-02-01T01:51:20;9.35;;;3.30;;
40951;SDS011;26682;51.660;19.338;2023-02-01T01:53:10;8.93;;;3.08;;
40951;SDS011;26682;51.660;19.338;2023-02-01T01:55:00;10.77;;;3.20;;
40951;SDS011;26682;51.660;19.338;2023-02-01T01:56:49;13.02;;;3.17;;
40951;SDS011;26682;51.660;19.338;2023-02-01T01:58:39;12.70;;;3.55;;
40951;SDS011;26682;51.660;19.338;2023-02-01T02:02:15;13.73;;;2.90;;
40951;SDS011;26682;51.660;19.338;2023-02-01T02:04:05;10.50;;;3.67;;
40951;SDS011;26682;51.660;19.338;2023-02-01T02:07:43;8.23;;;2.80;;
40951;SDS011;26682;51.660;19.338;2023-02-01T02:09:34;10.07;;;3.70;;
40951;SDS011;26682;51.660;19.338;2023-02-01T02:11:22;9.48;;;3.80;;
40951;SDS011;26682;51.660;19.338;2023-02-01T02:13:09;15.65;;;4.45;;
40951;SDS011;26682;51.660;19.338;2023-02-01T02:14:57;11.57;;;3.63;;
40951;SDS011;26682;51.660;19.338;2023-02-01T02:21:16;16.02;;;4.10;;
40951;SDS011;26682;51.660;19.338;2023-02-01T02:27:22;14.10;;;4.38;;
40951;SDS011;26682;51.660;19.338;2023-02-01T02:31:24;12.40;;;3.70;;
40951;SDS011;26682;51.660;19.338;2023-02-01T02:39:34;12.05;;;3.25;;
40951;SDS011;26682;51.660;19.338;2023-02-01T02:42:01;10.32;;;3.80;;
40951;SDS011;26682;51.660;19.338;2023-02-01T02:46:46;12.65;;;4.25;;
40951;SDS011;26682;51.660;19.338;2023-02-01T02:49:09;14.35;;;4.20;;
40951;SDS011;26682;51.660;19.338;2023-02-01T02:53:35;14.93;;;3.60;;
40951;SDS011;26682;51.660;19.338;2023-02-01T02:55:54;14.10;;;4.32;;
40951;SDS011;26682;51.660;19.338;2023-02-01T02:58:01;15.45;;;3.70;;
40951;SDS011;26682;51.660;19.338;2023-02-01T03:00:11;13.35;;;4.00;;
40951;SDS011;26682;51.660;19.338;2023-02-01T03:02:25;13.18;;;4.00;;
40951;SDS011;26682;51.660;19.338;2023-02-01T03:04:32;12.02;;;3.88;;
40951;SDS011;26682;51.660;19.338;2023-02-01T03:06:19;10.32;;;3.70;;
40951;SDS011;26682;51.660;19.338;2023-02-01T03:08:10;16.48;;;3.88;;
40951;SDS011;26682;51.660;19.338;2023-02-01T03:10:01;22.65;;;3.95;;
40951;SDS011;26682;51.660;19.338;2023-02-01T03:11:52;14.38;;;3.75;;
40951;SDS011;26682;51.660;19.338;2023-02-01T03:14:07;12.25;;;3.67;;
40951;SDS011;26682;51.660;19.338;2023-02-01T03:16:40;11.95;;;4.63;;
40951;SDS011;26682;51.660;19.338;2023-02-01T03:18:20;22.63;;;5.45;;
40951;SDS011;26682;51.660;19.338;2023-02-01T03:20:13;15.18;;;3.40;;
40951;SDS011;26682;51.660;19.338;2023-02-01T03:22:04;13.25;;;3.63;;
40951;SDS011;26682;51.660;19.338;2023-02-01T03:23:56;11.25;;;2.85;;
40951;SDS011;26682;51.660;19.338;2023-02-01T03:25:49;13.75;;;3.72;;
40951;SDS011;26682;51.660;19.338;2023-02-01T03:27:41;15.85;;;3.75;;
40951;SDS011;26682;51.660;19.338;2023-02-01T03:29:50;15.20;;;3.28;;
40951;SDS011;26682;51.660;19.338;2023-02-01T03:31:58;16.33;;;3.20;;
40951;SDS011;26682;51.660;19.338;2023-02-01T03:33:45;11.07;;;3.03;;
40951;SDS011;26682;51.660;19.338;2023-02-01T03:35:36;9.52;;;3.17;;
40951;SDS011;26682;51.660;19.338;2023-02-01T03:37:27;17.98;;;4.85;;
40951;SDS011;26682;51.660;19.338;2023-02-01T03:39:16;20.98;;;6.15;;
40951;SDS011;26682;51.660;19.338;2023-02-01T03:41:11;14.02;;;4.57;;
40951;SDS011;26682;51.660;19.338;2023-02-01T03:43:19;14.02;;;4.00;;
40951;SDS011;26682;51.660;19.338;2023-02-01T03:45:11;19.25;;;3.75;;
40951;SDS011;26682;51.660;19.338;2023-02-01T03:47:16;11.25;;;3.35;;
40951;SDS011;26682;51.660;19.338;2023-02-01T03:49:11;15.80;;;3.95;;
40951;SDS011;26682;51.660;19.338;2023-02-01T03:51:05;12.75;;;3.80;;
40951;SDS011;26682;51.660;19.338;2023-02-01T03:52:57;10.63;;;3.30;;
40951;SDS011;26682;51.660;19.338;2023-02-01T03:54:49;13.52;;;3.15;;
40951;SDS011;26682;51.660;19.338;2023-02-01T03:56:38;13.80;;;3.20;;
40951;SDS011;26682;51.660;19.338;2023-02-01T03:58:30;15.68;;;3.03;;
40951;SDS011;26682;51.660;19.338;2023-02-01T04:00:22;8.75;;;2.67;;
40951;SDS011;26682;51.660;19.338;2023-02-01T04:02:12;12.73;;;2.78;;
40951;SDS011;26682;51.660;19.338;2023-02-01T04:04:00;11.35;;;2.97;;
40951;SDS011;26682;51.660;19.338;2023-02-01T04:07:36;17.33;;;3.17;;
40951;SDS011;26682;51.660;19.338;2023-02-01T04:09:23;11.02;;;2.83;;
40951;SDS011;26682;51.660;19.338;2023-02-01T04:11:11;18.17;;;3.55;;
40951;SDS011;26682;51.660;19.338;2023-02-01T04:12:58;14.40;;;3.38;;
40951;SDS011;26682;51.660;19.338;2023-02-01T04:14:45;17.02;;;3.35;;
40951;SDS011;26682;51.660;19.338;2023-02-01T04:16:33;10.52;;;3.42;;
40951;SDS011;26682;51.660;19.338;2023-02-01T04:18:21;13.00;;;3.30;;
40951;SDS011;26682;51.660;19.338;2023-02-01T04:20:08;13.60;;;3.83;;
40951;SDS011;26682;51.660;19.338;2023-02-01T04:21:56;13.43;;;4.03;;
40951;SDS011;26682;51.660;19.338;2023-02-01T04:23:43;11.02;;;3.55;;
40951;SDS011;26682;51.660;19.338;2023-02-01T04:25:31;17.55;;;4.68;;
40951;SDS011;26682;51.660;19.338;2023-02-01T04:27:18;19.45;;;3.65;;
40951;SDS011;26682;51.660;19.338;2023-02-01T04:29:05;10.27;;;3.13;;
40951;SDS011;26682;51.660;19.338;2023-02-01T04:30:53;13.38;;;3.53;;
40951;SDS011;26682;51.660;19.338;2023-02-01T04:32:40;11.85;;;3.58;;
40951;SDS011;26682;51.660;19.338;2023-02-01T04:34:27;14.75;;;3.58;;
40951;SDS011;26682;51.660;19.338;2023-02-01T04:36:15;14.20;;;2.50;;
40951;SDS011;26682;51.660;19.338;2023-02-01T04:38:06;11.48;;;2.53;;
40951;SDS011;26682;51.660;19.338;2023-02-01T04:39:53;14.93;;;2.70;;
40951;SDS011;26682;51.660;19.338;2023-02-01T04:41:41;13.77;;;3.10;;
40951;SDS011;26682;51.660;19.338;2023-02-01T04:43:28;15.10;;;2.92;;
40951;SDS011;26682;51.660;19.338;2023-02-01T04:45:15;18.55;;;3.28;;
40951;SDS011;26682;51.660;19.338;2023-02-01T04:47:03;9.77;;;3.33;;
40951;SDS011;26682;51.660;19.338;2023-02-01T04:48:50;11.93;;;2.67;;
40951;SDS011;26682;51.660;19.338;2023-02-01T04:50:38;13.07;;;2.55;;
40951;SDS011;26682;51.660;19.338;2023-02-01T04:52:25;15.65;;;3.45;;
40951;SDS011;26682;51.660;19.338;2023-02-01T04:54:13;12.55;;;2.90;;
40951;SDS011;26682;51.660;19.338;2023-02-01T04:56:01;15.93;;;3.13;;
40951;SDS011;26682;51.660;19.338;2023-02-01T04:57:48;12.48;;;2.70;;
40951;SDS011;26682;51.660;19.338;2023-02-01T04:59:35;16.80;;;3.10;;
40951;SDS011;26682;51.660;19.338;2023-02-01T05:01:22;14.77;;;2.83;;
40951;SDS011;26682;51.660;19.338;2023-02-01T05:03:11;14.55;;;3.40;;
40951;SDS011;26682;51.660;19.338;2023-02-01T05:04:58;14.63;;;3.00;;
40951;SDS011;26682;51.660;19.338;2023-02-01T05:06:46;9.95;;;3.15;;
40951;SDS011;26682;51.660;19.338;2023-02-01T05:08:33;15.80;;;3.00;;
40951;SDS011;26682;51.660;19.338;2023-02-01T05:10:23;10.20;;;2.85;;
40951;SDS011;26682;51.660;19.338;2023-02-01T05:12:11;12.68;;;3.15;;
40951;SDS011;26682;51.660;19.338;2023-02-01T05:14:17;16.67;;;2.97;;
40951;SDS011;26682;51.660;19.338;2023-02-01T05:16:05;12.18;;;3.22;;
40951;SDS011;26682;51.660;19.338;2023-02-01T05:17:52;15.50;;;3.35;;
40951;SDS011;26682;51.660;19.338;2023-02-01T05:19:40;13.23;;;3.92;;
40951;SDS011;26682;51.660;19.338;2023-02-01T05:21:27;16.63;;;3.47;;
40951;SDS011;26682;51.660;19.338;2023-02-01T05:23:14;18.25;;;3.60;;
40951;SDS011;26682;51.660;19.338;2023-02-01T05:25:01;14.43;;;3.40;;
40951;SDS011;26682;51.660;19.338;2023-02-01T05:26:49;11.13;;;2.92;;
40951;SDS011;26682;51.660;19.338;2023-02-01T05:28:36;16.63;;;3.53;;
40951;SDS011;26682;51.660;19.338;2023-02-01T05:30:23;14.88;;;3.63;;
40951;SDS011;26682;51.660;19.338;2023-02-01T05:32:12;23.25;;;4.03;;
40951;SDS011;26682;51.660;19.338;2023-02-01T05:34:08;28.45;;;3.72;;
40951;SDS011;26682;51.660;19.338;2023-02-01T05:35:55;15.02;;;2.80;;
40951;SDS011;26682;51.660;19.338;2023-02-01T05:37:43;13.05;;;3.60;;
40951;SDS011;26682;51.660;19.338;2023-02-01T05:39:30;13.18;;;3.03;;
40951;SDS011;26682;51.660;19.338;2023-02-01T05:41:18;13.45;;;3.28;;
40951;SDS011;26682;51.660;19.338;2023-02-01T05:43:06;12.20;;;3.28;;
40951;SDS011;26682;51.660;19.338;2023-02-01T05:44:54;13.13;;;3.72;;
40951;SDS011;26682;51.660;19.338;2023-02-01T05:46:41;13.75;;;3.75;;
40951;SDS011;26682;51.660;19.338;2023-02-01T05:48:29;17.42;;;3.88;;
40951;SDS011;26682;51.660;19.338;2023-02-01T05:50:16;13.32;;;3.47;;
40951;SDS011;26682;51.660;19.338;2023-02-01T05:52:04;18.98;;;4.82;;
40951;SDS011;26682;51.660;19.338;2023-02-01T05:53:52;18.58;;;4.72;;
40951;SDS011;26682;51.660;19.338;2023-02-01T05:55:41;14.25;;;4.30;;
40951;SDS011;26682;51.660;19.338;2023-02-01T05:57:28;10.68;;;3.83;;
40951;SDS011;26682;51.660;19.338;2023-02-01T05:59:16;19.52;;;4.15;;
40951;SDS011;26682;51.660;19.338;2023-02-01T06:01:04;17.35;;;3.67;;
40951;SDS011;26682;51.660;19.338;2023-02-01T06:02:51;19.13;;;4.10;;
40951;SDS011;26682;51.660;19.338;2023-02-01T06:04:39;17.83;;;4.30;;
40951;SDS011;26682;51.660;19.338;2023-02-01T06:06:26;17.90;;;5.47;;
40951;SDS011;26682;51.660;19.338;2023-02-01T06:08:13;22.50;;;7.28;;
40951;SDS011;26682;51.660;19.338;2023-02-01T06:10:01;16.83;;;5.60;;
40951;SDS011;26682;51.660;19.338;2023-02-01T06:11:49;19.20;;;6.78;;
40951;SDS011;26682;51.660;19.338;2023-02-01T06:13:36;15.75;;;6.43;;
40951;SDS011;26682;51.660;19.338;2023-02-01T06:15:25;19.92;;;6.28;;
40951;SDS011;26682;51.660;19.338;2023-02-01T06:17:12;16.65;;;5.22;;
40951;SDS011;26682;51.660;19.338;2023-02-01T06:18:59;20.55;;;4.93;;
40951;SDS011;26682;51.660;19.338;2023-02-01T06:20:57;15.95;;;4.32;;
40951;SDS011;26682;51.660;19.338;2023-02-01T06:22:46;18.05;;;4.82;;
40951;SDS011;26682;51.660;19.338;2023-02-01T06:24:34;20.83;;;4.32;;
40951;SDS011;26682;51.660;19.338;2023-02-01T06:26:21;21.27;;;4.68;;
40951;SDS011;26682;51.660;19.338;2023-02-01T06:28:08;16.80;;;4.20;;
40951;SDS011;26682;51.660;19.338;2023-02-01T06:29:56;22.38;;;5.47;;
40951;SDS011;26682;51.660;19.338;2023-02-01T06:31:43;16.45;;;4.20;;
40951;SDS011;26682;51.660;19.338;2023-02-01T06:33:32;25.67;;;4.22;;
40951;SDS011;26682;51.660;19.338;2023-02-01T06:35:20;18.40;;;5.13;;
40951;SDS011;26682;51.660;19.338;2023-02-01T06:37:07;17.73;;;4.55;;
40951;SDS011;26682;51.660;19.338;2023-02-01T06:38:59;23.85;;;4.93;;
40951;SDS011;26682;51.660;19.338;2023-02-01T06:40:52;19.13;;;5.10;;
40951;SDS011;26682;51.660;19.338;2023-02-01T06:42:40;21.73;;;6.15;;
40951;SDS011;26682;51.660;19.338;2023-02-01T06:44:28;21.33;;;6.97;;
40951;SDS011;26682;51.660;19.338;2023-02-01T06:46:19;23.73;;;7.00;;
40951;SDS011;26682;51.660;19.338;2023-02-01T06:48:06;26.13;;;7.00;;
40951;SDS011;26682;51.660;19.338;2023-02-01T06:49:53;20.73;;;6.78;;
40951;SDS011;26682;51.660;19.338;2023-02-01T06:51:41;24.17;;;6.95;;
40951;SDS011;26682;51.660;19.338;2023-02-01T06:53:28;23.20;;;6.47;;
40951;SDS011;26682;51.660;19.338;2023-02-01T06:55:16;30.25;;;7.38;;
40951;SDS011;26682;51.660;19.338;2023-02-01T06:57:04;27.20;;;7.63;;
40951;SDS011;26682;51.660;19.338;2023-02-01T06:58:51;29.02;;;8.35;;
40951;SDS011;26682;51.660;19.338;2023-02-01T07:00:38;18.67;;;7.00;;
40951;SDS011;26682;51.660;19.338;2023-02-01T07:02:26;22.20;;;9.27;;
40951;SDS011;26682;51.660;19.338;2023-02-01T07:04:13;25.10;;;7.68;;
40951;SDS011;26682;51.660;19.338;2023-02-01T07:06:01;17.42;;;5.30;;
40951;SDS011;26682;51.660;19.338;2023-02-01T07:07:49;25.77;;;7.10;;
40951;SDS011;26682;51.660;19.338;2023-02-01T07:09:36;40.65;;;21.27;;
40951;SDS011;26682;51.660;19.338;2023-02-01T07:11:24;37.47;;;21.42;;
40951;SDS011;26682;51.660;19.338;2023-02-01T07:13:13;20.25;;;10.95;;
40951;SDS011;26682;51.660;19.338;2023-02-01T07:15:01;22.35;;;6.28;;
40951;SDS011;26682;51.660;19.338;2023-02-01T07:16:50;20.42;;;8.40;;
40951;SDS011;26682;51.660;19.338;2023-02-01T07:18:38;17.92;;;6.20;;
40951;SDS011;26682;51.660;19.338;2023-02-01T07:20:25;17.98;;;6.28;;
40951;SDS011;26682;51.660;19.338;2023-02-01T07:22:13;14.98;;;5.00;;
40951;SDS011;26682;51.660;19.338;2023-02-01T07:24:03;19.10;;;5.60;;
40951;SDS011;26682;51.660;19.338;2023-02-01T07:25:58;21.08;;;4.60;;
40951;SDS011;26682;51.660;19.338;2023-02-01T07:27:47;18.80;;;4.88;;
40951;SDS011;26682;51.660;19.338;2023-02-01T07:29:36;19.83;;;5.43;;
40951;SDS011;26682;51.660;19.338;2023-02-01T07:31:23;18.35;;;5.40;;
40951;SDS011;26682;51.660;19.338;2023-02-01T07:33:13;23.17;;;5.35;;
40951;SDS011;26682;51.660;19.338;2023-02-01T07:35:00;23.88;;;7.05;;
40951;SDS011;26682;51.660;19.338;2023-02-01T07:36:48;21.00;;;6.75;;
40951;SDS011;26682;51.660;19.338;2023-02-01T07:38:35;20.05;;;5.75;;
40951;SDS011;26682;51.660;19.338;2023-02-01T07:40:23;14.88;;;4.57;;
40951;SDS011;26682;51.660;19.338;2023-02-01T07:42:15;22.92;;;4.63;;
40951;SDS011;26682;51.660;19.338;2023-02-01T07:45:51;16.63;;;5.38;;
40951;SDS011;26682;51.660;19.338;2023-02-01T07:47:39;20.70;;;6.85;;
40951;SDS011;26682;51.660;19.338;2023-02-01T07:51:16;21.83;;;6.03;;
40951;SDS011;26682;51.660;19.338;2023-02-01T07:53:04;24.05;;;7.25;;
40951;SDS011;26682;51.660;19.338;2023-02-01T07:54:51;18.65;;;5.07;;
40951;SDS011;26682;51.660;19.338;2023-02-01T07:56:39;22.13;;;6.22;;
40951;SDS011;26682;51.660;19.338;2023-02-01T08:00:14;19.85;;;4.72;;
40951;SDS011;26682;51.660;19.338;2023-02-01T08:02:20;16.85;;;5.10;;
40951;SDS011;26682;51.660;19.338;2023-02-01T08:04:09;21.33;;;4.05;;
40951;SDS011;26682;51.660;19.338;2023-02-01T08:05:59;18.27;;;4.28;;
40951;SDS011;26682;51.660;19.338;2023-02-01T08:07:49;18.88;;;4.75;;
40951;SDS011;26682;51.660;19.338;2023-02-01T08:09:37;16.77;;;4.68;;
40951;SDS011;26682;51.660;19.338;2023-02-01T08:11:25;14.02;;;4.38;;
40951;SDS011;26682;51.660;19.338;2023-02-01T08:13:13;13.05;;;4.07;;
40951;SDS011;26682;51.660;19.338;2023-02-01T08:15:01;18.08;;;5.32;;
40951;SDS011;26682;51.660;19.338;2023-02-01T08:16:49;14.77;;;4.35;;
40951;SDS011;26682;51.660;19.338;2023-02-01T08:18:37;16.85;;;4.50;;
40951;SDS011;26682;51.660;19.338;2023-02-01T08:20:25;14.40;;;4.10;;
40951;SDS011;26682;51.660;19.338;2023-02-01T08:22:13;15.63;;;5.85;;
40951;SDS011;26682;51.660;19.338;2023-02-01T08:24:01;19.77;;;5.22;;
40951;SDS011;26682;51.660;19.338;2023-02-01T08:25:52;19.38;;;4.93;;
40951;SDS011;26682;51.660;19.338;2023-02-01T08:27:39;17.98;;;5.53;;
40951;SDS011;26682;51.660;19.338;2023-02-01T08:29:27;17.35;;;4.45;;
40951;SDS011;26682;51.660;19.338;2023-02-01T08:33:04;22.95;;;6.72;;
40951;SDS011;26682;51.660;19.338;2023-02-01T08:34:55;28.13;;;7.85;;
40951;SDS011;26682;51.660;19.338;2023-02-01T08:36:43;22.08;;;5.65;;
40951;SDS011;26682;51.660;19.338;2023-02-01T08:38:31;24.48;;;11.00;;
40951;SDS011;26682;51.660;19.338;2023-02-01T08:40:18;28.45;;;7.20;;
40951;SDS011;26682;51.660;19.338;2023-02-01T08:42:08;19.73;;;6.47;;
40951;SDS011;26682;51.660;19.338;2023-02-01T08:44:15;19.88;;;8.15;;
40951;SDS011;26682;51.660;19.338;2023-02-01T08:46:03;24.58;;;8.93;;
40951;SDS011;26682;51.660;19.338;2023-02-01T08:47:51;22.42;;;8.30;;
40951;SDS011;26682;51.660;19.338;2023-02-01T08:49:39;21.17;;;8.25;;
40951;SDS011;26682;51.660;19.338;2023-02-01T08:51:26;23.30;;;9.00;;
40951;SDS011;26682;51.660;19.338;2023-02-01T08:53:14;22.80;;;8.38;;
40951;SDS011;26682;51.660;19.338;2023-02-01T08:55:02;27.98;;;9.35;;
40951;SDS011;26682;51.660;19.338;2023-02-01T08:58:38;20.67;;;6.55;;
40951;SDS011;26682;51.660;19.338;2023-02-01T09:00:25;19.52;;;6.28;;
40951;SDS011;26682;51.660;19.338;2023-02-01T09:02:13;19.75;;;5.85;;
40951;SDS011;26682;51.660;19.338;2023-02-01T09:04:02;15.85;;;5.20;;
40951;SDS011;26682;51.660;19.338;2023-02-01T09:05:50;14.93;;;5.47;;
40951;SDS011;26682;51.660;19.338;2023-02-01T09:07:39;22.00;;;8.25;;
40951;SDS011;26682;51.660;19.338;2023-02-01T09:09:27;19.08;;;6.80;;
40951;SDS011;26682;51.660;19.338;2023-02-01T09:11:16;25.20;;;8.55;;
40951;SDS011;26682;51.660;19.338;2023-02-01T09:13:06;26.98;;;9.23;;
40951;SDS011;26682;51.660;19.338;2023-02-01T09:14:55;24.80;;;6.72;;
40951;SDS011;26682;51.660;19.338;2023-02-01T09:16:46;23.52;;;6.25;;
40951;SDS011;26682;51.660;19.338;2023-02-01T09:18:34;19.90;;;6.97;;
40951;SDS011;26682;51.660;19.338;2023-02-01T09:22:11;20.27;;;8.02;;
40951;SDS011;26682;51.660;19.338;2023-02-01T09:25:49;32.60;;;11.00;;
40951;SDS011;26682;51.660;19.338;2023-02-01T09:27:38;26.05;;;6.82;;
40951;SDS011;26682;51.660;19.338;2023-02-01T09:29:26;27.08;;;7.72;;
40951;SDS011;26682;51.660;19.338;2023-02-01T09:31:15;18.60;;;6.65;;
40951;SDS011;26682;51.660;19.338;2023-02-01T09:33:02;22.90;;;6.97;;
40951;SDS011;26682;51.660;19.338;2023-02-01T09:34:51;22.30;;;8.18;;
40951;SDS011;26682;51.660;19.338;2023-02-01T09:36:39;26.90;;;6.63;;
40951;SDS011;26682;51.660;19.338;2023-02-01T09:38:27;20.33;;;7.25;;
40951;SDS011;26682;51.660;19.338;2023-02-01T09:40:15;27.02;;;7.72;;
40951;SDS011;26682;51.660;19.338;2023-02-01T09:44:18;19.30;;;6.90;;
40951;SDS011;26682;51.660;19.338;2023-02-01T09:48:29;19.27;;;6.43;;
40951;SDS011;26682;51.660;19.338;2023-02-01T09:50:28;26.40;;;8.13;;
40951;SDS011;26682;51.660;19.338;2023-02-01T09:52:44;22.08;;;6.85;;
40951;SDS011;26682;51.660;19.338;2023-02-01T09:54:44;26.48;;;8.50;;
40951;SDS011;26682;51.660;19.338;2023-02-01T09:56:49;28.40;;;9.27;;
40951;SDS011;26682;51.660;19.338;2023-02-01T09:58:47;22.63;;;8.32;;
40951;SDS011;26682;51.660;19.338;2023-02-01T10:01:04;16.85;;;7.20;;
40951;SDS011;26682;51.660;19.338;2023-02-01T10:03:01;19.30;;;7.32;;
40951;SDS011;26682;51.660;19.338;2023-02-01T10:04:50;27.83;;;9.88;;
40951;SDS011;26682;51.660;19.338;2023-02-01T10:11:15;19.92;;;7.80;;
40951;SDS011;26682;51.660;19.338;2023-02-01T10:15:14;18.95;;;6.95;;
40951;SDS011;26682;51.660;19.338;2023-02-01T10:24:07;21.03;;;8.13;;
40951;SDS011;26682;51.660;19.338;2023-02-01T10:26:17;20.02;;;8.80;;
40951;SDS011;26682;51.660;19.338;2023-02-01T10:28:09;23.27;;;7.55;;
40951;SDS011;26682;51.660;19.338;2023-02-01T10:30:14;25.83;;;8.05;;
40951;SDS011;26682;51.660;19.338;2023-02-01T10:32:14;26.48;;;9.38;;
40951;SDS011;26682;51.660;19.338;2023-02-01T10:36:08;30.33;;;10.48;;
40951;SDS011;26682;51.660;19.338;2023-02-01T10:38:04;25.58;;;10.60;;
40951;SDS011;26682;51.660;19.338;2023-02-01T10:40:12;25.85;;;8.85;;
40951;SDS011;26682;51.660;19.338;2023-02-01T10:42:01;25.70;;;9.68;;
40951;SDS011;26682;51.660;19.338;2023-02-01T10:43:54;19.35;;;9.10;;
40951;SDS011;26682;51.660;19.338;2023-02-01T10:45:43;25.73;;;8.55;;
40951;SDS011;26682;51.660;19.338;2023-02-01T10:47:31;24.48;;;10.00;;
40951;SDS011;26682;51.660;19.338;2023-02-01T10:49:24;31.27;;;11.40;;
40951;SDS011;26682;51.660;19.338;2023-02-01T10:51:29;25.27;;;10.50;;
40951;SDS011;26682;51.660;19.338;2023-02-01T10:54:01;25.58;;;9.98;;
40951;SDS011;26682;51.660;19.338;2023-02-01T10:55:49;23.45;;;9.52;;
40951;SDS011;26682;51.660;19.338;2023-02-01T10:57:39;24.88;;;9.48;;
40951;SDS011;26682;51.660;19.338;2023-02-01T10:59:27;21.55;;;8.60;;
40951;SDS011;26682;51.660;19.338;2023-02-01T11:01:21;24.75;;;11.45;;
40951;SDS011;26682;51.660;19.338;2023-02-01T11:03:53;27.20;;;10.13;;
40951;SDS011;26682;51.660;19.338;2023-02-01T11:05:47;34.72;;;11.68;;
40951;SDS011;26682;51.660;19.338;2023-02-01T11:07:35;25.70;;;10.52;;
40951;SDS011;26682;51.660;19.338;2023-02-01T11:09:24;22.20;;;9.52;;
40951;SDS011;26682;51.660;19.338;2023-02-01T11:11:12;26.13;;;10.43;;
40951;SDS011;26682;51.660;19.338;2023-02-01T11:13:01;25.30;;;8.80;;
40951;SDS011;26682;51.660;19.338;2023-02-01T11:14:50;24.83;;;10.02;;
40951;SDS011;26682;51.660;19.338;2023-02-01T11:16:38;32.22;;;11.27;;
40951;SDS011;26682;51.660;19.338;2023-02-01T11:20:19;24.88;;;9.27;;
40951;SDS011;26682;51.660;19.338;2023-02-01T11:22:19;27.25;;;9.35;;
40951;SDS011;26682;51.660;19.338;2023-02-01T11:24:11;18.23;;;7.93;;
40951;SDS011;26682;51.660;19.338;2023-02-01T11:26:26;18.23;;;7.72;;
40951;SDS011;26682;51.660;19.338;2023-02-01T11:28:14;22.63;;;8.15;;
40951;SDS011;26682;51.660;19.338;2023-02-01T11:30:02;23.23;;;7.97;;
40951;SDS011;26682;51.660;19.338;2023-02-01T11:31:51;19.17;;;7.47;;
40951;SDS011;26682;51.660;19.338;2023-02-01T11:33:39;19.08;;;7.18;;
40951;SDS011;26682;51.660;19.338;2023-02-01T11:35:37;19.42;;;8.07;;
40951;SDS011;26682;51.660;19.338;2023-02-01T11:37:37;19.55;;;7.78;;
40951;SDS011;26682;51.660;19.338;2023-02-01T11:39:32;21.65;;;7.18;;
40951;SDS011;26682;51.660;19.338;2023-02-01T11:41:25;15.85;;;6.22;;
40951;SDS011;26682;51.660;19.338;2023-02-01T11:43:16;17.70;;;6.43;;
40951;SDS011;26682;51.660;19.338;2023-02-01T11:45:18;19.20;;;6.50;;
40951;SDS011;26682;51.660;19.338;2023-02-01T11:47:20;20.23;;;7.15;;
40951;SDS011;26682;51.660;19.338;2023-02-01T11:49:22;15.48;;;5.28;;
40951;SDS011;26682;51.660;19.338;2023-02-01T11:51:37;16.15;;;5.07;;
40951;SDS011;26682;51.660;19.338;2023-02-01T11:57:43;15.23;;;5.18;;
40951;SDS011;26682;51.660;19.338;2023-02-01T12:02:19;11.90;;;5.20;;